sensor_id;sensor_type;location;lat;lon;timestamp;pressure;altitude;pressure_sealevel;temperature;humidity
55801;BME280;41730;51.960;20.158;2022-11-03T00:01:37;100788.90;;;10.98;71.80
55801;BME280;41730;51.960;20.158;2022-11-03T00:04:08;100787.81;;;10.89;72.21
55801;BME280;41730;51.960;20.158;2022-11-03T00:06:37;100793.73;;;10.95;72.06
55801;BME280;41730;51.960;20.158;2022-11-03T00:09:08;100793.69;;;11.00;71.89
55801;BME280;41730;51.960;20.158;2022-11-03T00:11:38;100794.77;;;10.85;72.11
55801;BME280;41730;51.960;20.158;2022-11-03T00:14:08;100800.79;;;10.85;72.24
55801;BME280;41730;51.960;20.158;2022-11-03T00:16:38;100802.45;;;10.86;72.07
55801;BME280;41730;51.960;20.158;2022-11-03T00:19:08;100802.38;;;10.75;72.33
55801;BME280;41730;51.960;20.158;2022-11-03T00:21:37;100806.14;;;10.78;72.36
55801;BME280;41730;51.960;20.158;2022-11-03T00:24:07;100804.61;;;10.83;71.94
55801;BME280;41730;51.960;20.158;2022-11-03T00:26:36;100806.79;;;10.84;72.01
55801;BME280;41730;51.960;20.158;2022-11-03T00:29:08;100808.63;;;10.80;71.87
55801;BME280;41730;51.960;20.158;2022-11-03T00:31:39;100811.86;;;10.70;72.11
55801;BME280;41730;51.960;20.158;2022-11-03T00:34:08;100809.07;;;10.67;72.13
55801;BME280;41730;51.960;20.158;2022-11-03T00:36:39;100804.83;;;10.59;72.27
55801;BME280;41730;51.960;20.158;2022-11-03T00:39:09;100797.33;;;10.72;71.86
55801;BME280;41730;51.960;20.158;2022-11-03T00:41:38;100793.36;;;10.85;71.40
55801;BME280;41730;51.960;20.158;2022-11-03T00:44:07;100796.91;;;10.87;71.05
55801;BME280;41730;51.960;20.158;2022-11-03T00:46:37;100799.14;;;10.88;70.83
55801;BME280;41730;51.960;20.158;2022-11-03T00:49:06;100800.70;;;10.76;71.15
55801;BME280;41730;51.960;20.158;2022-11-03T00:51:34;100803.63;;;10.60;71.50
55801;BME280;41730;51.960;20.158;2022-11-03T00:54:04;100807.98;;;10.54;71.73
55801;BME280;41730;51.960;20.158;2022-11-03T00:56:35;100805.59;;;10.48;71.82
55801;BME280;41730;51.960;20.158;2022-11-03T00:59:05;100808.45;;;10.52;71.72
55801;BME280;41730;51.960;20.158;2022-11-03T01:01:37;100803.34;;;10.59;71.33
55801;BME280;41730;51.960;20.158;2022-11-03T01:04:13;100806.54;;;10.59;71.13
55801;BME280;41730;51.960;20.158;2022-11-03T01:07:01;100806.73;;;10.66;70.88
55801;BME280;41730;51.960;20.158;2022-11-03T01:09:33;100803.64;;;10.67;70.71
55801;BME280;41730;51.960;20.158;2022-11-03T01:12:05;100811.45;;;10.71;70.56
55801;BME280;41730;51.960;20.158;2022-11-03T01:14:36;100811.41;;;10.72;70.38
55801;BME280;41730;51.960;20.158;2022-11-03T01:17:06;100810.94;;;10.63;70.52
55801;BME280;41730;51.960;20.158;2022-11-03T01:19:35;100816.21;;;10.44;70.89
55801;BME280;41730;51.960;20.158;2022-11-03T01:22:04;100819.52;;;10.27;71.44
55801;BME280;41730;51.960;20.158;2022-11-03T01:24:38;100818.27;;;10.30;71.51
55801;BME280;41730;51.960;20.158;2022-11-03T01:27:08;100817.95;;;10.37;71.12
55801;BME280;41730;51.960;20.158;2022-11-03T01:29:37;100819.26;;;10.36;71.37
55801;BME280;41730;51.960;20.158;2022-11-03T01:32:06;100816.15;;;10.28;72.14
55801;BME280;41730;51.960;20.158;2022-11-03T01:34:35;100817.71;;;10.28;72.27
55801;BME280;41730;51.960;20.158;2022-11-03T01:37:04;100814.25;;;10.30;72.33
55801;BME280;41730;51.960;20.158;2022-11-03T01:39:33;100817.23;;;10.27;72.30
55801;BME280;41730;51.960;20.158;2022-11-03T01:42:02;100818.00;;;10.26;72.36
55801;BME280;41730;51.960;20.158;2022-11-03T01:44:33;100813.43;;;10.34;72.17
55801;BME280;41730;51.960;20.158;2022-11-03T01:47:10;100808.35;;;10.36;71.84
55801;BME280;41730;51.960;20.158;2022-11-03T01:49:44;100810.55;;;10.27;72.01
55801;BME280;41730;51.960;20.158;2022-11-03T01:52:17;100808.69;;;10.21;72.13
55801;BME280;41730;51.960;20.158;2022-11-03T01:54:49;100810.59;;;9.97;72.80
55801;BME280;41730;51.960;20.158;2022-11-03T01:57:23;100811.99;;;9.89;73.24
55801;BME280;41730;51.960;20.158;2022-11-03T01:59:54;100810.11;;;9.94;72.82
55801;BME280;41730;51.960;20.158;2022-11-03T02:02:25;100813.56;;;9.90;72.63
55801;BME280;41730;51.960;20.158;2022-11-03T02:04:56;100813.81;;;9.81;72.74
55801;BME280;41730;51.960;20.158;2022-11-03T02:07:31;100814.94;;;9.75;73.00
55801;BME280;41730;51.960;20.158;2022-11-03T02:10:01;100814.51;;;9.74;72.92
55801;BME280;41730;51.960;20.158;2022-11-03T02:12:31;100816.66;;;9.86;72.44
55801;BME280;41730;51.960;20.158;2022-11-03T02:15:03;100817.31;;;9.94;71.97
55801;BME280;41730;51.960;20.158;2022-11-03T02:17:34;100813.33;;;9.91;71.91
55801;BME280;41730;51.960;20.158;2022-11-03T02:20:06;100814.10;;;9.87;71.88
55801;BME280;41730;51.960;20.158;2022-11-03T02:25:46;100816.25;;;9.79;71.91
55801;BME280;41730;51.960;20.158;2022-11-03T02:28:17;100810.88;;;9.73;71.92
55801;BME280;41730;51.960;20.158;2022-11-03T02:30:52;100811.90;;;9.68;71.82
55801;BME280;41730;51.960;20.158;2022-11-03T02:33:31;100813.92;;;9.72;71.75
55801;BME280;41730;51.960;20.158;2022-11-03T02:36:08;100819.36;;;9.82;71.26
55801;BME280;41730;51.960;20.158;2022-11-03T02:38:47;100818.55;;;9.86;70.82
55801;BME280;41730;51.960;20.158;2022-11-03T02:41:21;100819.70;;;9.69;71.29
55801;BME280;41730;51.960;20.158;2022-11-03T02:43:52;100822.77;;;9.66;71.59
55801;BME280;41730;51.960;20.158;2022-11-03T02:46:24;100817.84;;;9.58;71.49
55801;BME280;41730;51.960;20.158;2022-11-03T02:48:53;100816.52;;;9.57;71.42
55801;BME280;41730;51.960;20.158;2022-11-03T02:51:24;100824.50;;;9.51;71.77
55801;BME280;41730;51.960;20.158;2022-11-03T02:53:59;100830.50;;;9.50;71.41
55801;BME280;41730;51.960;20.158;2022-11-03T02:56:32;100829.70;;;9.49;71.50
55801;BME280;41730;51.960;20.158;2022-11-03T02:59:07;100828.86;;;9.43;71.64
55801;BME280;41730;51.960;20.158;2022-11-03T03:01:39;100826.38;;;9.36;72.08
55801;BME280;41730;51.960;20.158;2022-11-03T03:04:16;100827.33;;;9.42;71.82
55801;BME280;41730;51.960;20.158;2022-11-03T03:06:50;100829.10;;;9.48;71.40
55801;BME280;41730;51.960;20.158;2022-11-03T03:09:26;100826.74;;;9.46;71.37
55801;BME280;41730;51.960;20.158;2022-11-03T03:11:58;100823.23;;;9.33;71.81
55801;BME280;41730;51.960;20.158;2022-11-03T03:14:29;100823.36;;;9.37;71.58
55801;BME280;41730;51.960;20.158;2022-11-03T03:17:02;100821.75;;;9.29;71.58
55801;BME280;41730;51.960;20.158;2022-11-03T03:19:40;100824.14;;;9.25;71.80
55801;BME280;41730;51.960;20.158;2022-11-03T03:22:15;100822.70;;;9.23;71.57
55801;BME280;41730;51.960;20.158;2022-11-03T03:24:52;100821.89;;;9.17;71.66
55801;BME280;41730;51.960;20.158;2022-11-03T03:27:25;100823.02;;;9.07;71.93
55801;BME280;41730;51.960;20.158;2022-11-03T03:29:57;100821.65;;;9.07;71.89
55801;BME280;41730;51.960;20.158;2022-11-03T03:32:32;100823.71;;;8.97;72.09
55801;BME280;41730;51.960;20.158;2022-11-03T03:35:05;100826.13;;;8.85;72.42
55801;BME280;41730;51.960;20.158;2022-11-03T03:37:38;100823.23;;;8.83;72.63
55801;BME280;41730;51.960;20.158;2022-11-03T03:40:12;100829.13;;;8.82;72.98
55801;BME280;41730;51.960;20.158;2022-11-03T03:42:44;100823.29;;;8.77;72.64
55801;BME280;41730;51.960;20.158;2022-11-03T03:45:15;100825.04;;;8.96;72.19
55801;BME280;41730;51.960;20.158;2022-11-03T03:47:45;100824.39;;;9.03;71.83
55801;BME280;41730;51.960;20.158;2022-11-03T03:50:14;100823.81;;;9.03;71.62
55801;BME280;41730;51.960;20.158;2022-11-03T03:52:43;100825.18;;;8.88;71.99
55801;BME280;41730;51.960;20.158;2022-11-03T03:55:16;100827.51;;;8.74;72.27
55801;BME280;41730;51.960;20.158;2022-11-03T03:57:45;100835.49;;;8.62;72.76
55801;BME280;41730;51.960;20.158;2022-11-03T04:00:15;100839.06;;;8.68;72.45
55801;BME280;41730;51.960;20.158;2022-11-03T04:02:44;100838.06;;;8.84;71.96
55801;BME280;41730;51.960;20.158;2022-11-03T04:05:13;100841.10;;;8.77;71.90
55801;BME280;41730;51.960;20.158;2022-11-03T04:07:42;100847.23;;;8.74;72.13
55801;BME280;41730;51.960;20.158;2022-11-03T04:10:16;100847.21;;;8.75;72.06
55801;BME280;41730;51.960;20.158;2022-11-03T04:12:46;100843.57;;;8.69;71.95
55801;BME280;41730;51.960;20.158;2022-11-03T04:15:33;100847.95;;;8.74;71.95
55801;BME280;41730;51.960;20.158;2022-11-03T04:18:21;100850.54;;;8.86;71.54
55801;BME280;41730;51.960;20.158;2022-11-03T04:21:11;100852.26;;;8.75;71.58
55801;BME280;41730;51.960;20.158;2022-11-03T04:23:58;100840.39;;;8.83;71.33
55801;BME280;41730;51.960;20.158;2022-11-03T04:26:28;100837.27;;;8.88;70.85
55801;BME280;41730;51.960;20.158;2022-11-03T04:28:57;100840.44;;;8.87;70.86
55801;BME280;41730;51.960;20.158;2022-11-03T04:31:32;100841.86;;;8.60;71.83
55801;BME280;41730;51.960;20.158;2022-11-03T04:34:12;100840.17;;;8.48;71.85
55801;BME280;41730;51.960;20.158;2022-11-03T04:36:44;100841.24;;;8.48;71.73
55801;BME280;41730;51.960;20.158;2022-11-03T04:39:17;100836.91;;;8.53;71.59
55801;BME280;41730;51.960;20.158;2022-11-03T04:41:46;100841.70;;;8.38;71.70
55801;BME280;41730;51.960;20.158;2022-11-03T04:44:15;100839.89;;;8.39;71.54
55801;BME280;41730;51.960;20.158;2022-11-03T04:46:45;100839.55;;;8.36;71.46
55801;BME280;41730;51.960;20.158;2022-11-03T04:49:18;100844.70;;;8.34;71.36
55801;BME280;41730;51.960;20.158;2022-11-03T04:51:49;100849.10;;;8.28;71.47
55801;BME280;41730;51.960;20.158;2022-11-03T04:54:21;100846.09;;;8.23;71.22
55801;BME280;41730;51.960;20.158;2022-11-03T04:56:51;100849.27;;;8.23;71.13
55801;BME280;41730;51.960;20.158;2022-11-03T04:59:19;100850.27;;;8.26;71.22
55801;BME280;41730;51.960;20.158;2022-11-03T05:01:48;100853.48;;;8.25;70.66
55801;BME280;41730;51.960;20.158;2022-11-03T05:04:17;100850.05;;;8.13;71.03
55801;BME280;41730;51.960;20.158;2022-11-03T05:06:49;100856.23;;;8.09;71.22
55801;BME280;41730;51.960;20.158;2022-11-03T05:09:22;100858.44;;;8.07;71.17
55801;BME280;41730;51.960;20.158;2022-11-03T05:11:52;100856.05;;;7.92;71.73
55801;BME280;41730;51.960;20.158;2022-11-03T05:14:22;100859.89;;;7.83;71.87
55801;BME280;41730;51.960;20.158;2022-11-03T05:16:53;100859.63;;;7.85;72.01
55801;BME280;41730;51.960;20.158;2022-11-03T05:19:25;100860.13;;;7.94;71.52
55801;BME280;41730;51.960;20.158;2022-11-03T05:21:55;100860.66;;;7.91;71.77
55801;BME280;41730;51.960;20.158;2022-11-03T05:24:26;100859.41;;;7.88;71.77
55801;BME280;41730;51.960;20.158;2022-11-03T05:26:57;100857.34;;;7.85;72.06
55801;BME280;41730;51.960;20.158;2022-11-03T05:29:31;100855.96;;;7.76;72.16
55801;BME280;41730;51.960;20.158;2022-11-03T05:32:00;100856.77;;;7.77;72.23
55801;BME280;41730;51.960;20.158;2022-11-03T05:34:35;100857.77;;;7.70;72.69
55801;BME280;41730;51.960;20.158;2022-11-03T05:37:21;100853.05;;;7.70;72.77
55801;BME280;41730;51.960;20.158;2022-11-03T05:39:55;100854.90;;;7.79;72.45
55801;BME280;41730;51.960;20.158;2022-11-03T05:42:35;100856.77;;;7.68;72.64
55801;BME280;41730;51.960;20.158;2022-11-03T05:45:14;100860.88;;;7.70;72.58
55801;BME280;41730;51.960;20.158;2022-11-03T05:47:43;100861.20;;;7.71;72.59
55801;BME280;41730;51.960;20.158;2022-11-03T05:50:16;100865.17;;;7.80;72.42
55801;BME280;41730;51.960;20.158;2022-11-03T05:52:47;100866.88;;;7.86;72.52
55801;BME280;41730;51.960;20.158;2022-11-03T05:55:26;100871.95;;;7.98;72.05
55801;BME280;41730;51.960;20.158;2022-11-03T05:57:56;100873.89;;;8.00;72.25
55801;BME280;41730;51.960;20.158;2022-11-03T06:00:28;100873.30;;;8.07;71.65
55801;BME280;41730;51.960;20.158;2022-11-03T06:02:58;100872.90;;;8.16;71.82
55801;BME280;41730;51.960;20.158;2022-11-03T06:05:29;100875.14;;;8.14;71.60
55801;BME280;41730;51.960;20.158;2022-11-03T06:08:01;100874.15;;;8.10;71.80
55801;BME280;41730;51.960;20.158;2022-11-03T06:10:35;100872.40;;;8.10;72.08
55801;BME280;41730;51.960;20.158;2022-11-03T06:13:12;100876.54;;;8.14;72.27
55801;BME280;41730;51.960;20.158;2022-11-03T06:15:43;100879.27;;;8.32;72.09
55801;BME280;41730;51.960;20.158;2022-11-03T06:18:17;100880.13;;;8.49;72.18
55801;BME280;41730;51.960;20.158;2022-11-03T06:20:50;100878.84;;;8.75;71.67
55801;BME280;41730;51.960;20.158;2022-11-03T06:23:20;100879.98;;;9.08;71.33
55801;BME280;41730;51.960;20.158;2022-11-03T06:25:52;100877.73;;;9.42;70.68
55801;BME280;41730;51.960;20.158;2022-11-03T06:28:24;100876.36;;;9.83;70.01
55801;BME280;41730;51.960;20.158;2022-11-03T06:30:54;100884.27;;;10.18;69.48
55801;BME280;41730;51.960;20.158;2022-11-03T06:33:26;100885.77;;;10.57;68.74
55801;BME280;41730;51.960;20.158;2022-11-03T06:36:00;100880.37;;;11.07;67.96
55801;BME280;41730;51.960;20.158;2022-11-03T06:38:30;100873.69;;;11.59;67.07
55801;BME280;41730;51.960;20.158;2022-11-03T06:41:01;100877.42;;;11.93;66.33
55801;BME280;41730;51.960;20.158;2022-11-03T06:43:36;100879.98;;;12.20;65.62
55801;BME280;41730;51.960;20.158;2022-11-03T06:46:17;100881.65;;;12.28;65.33
55801;BME280;41730;51.960;20.158;2022-11-03T06:48:47;100880.30;;;11.94;65.79
55801;BME280;41730;51.960;20.158;2022-11-03T06:51:19;100879.95;;;11.68;66.53
55801;BME280;41730;51.960;20.158;2022-11-03T06:53:50;100881.44;;;11.74;66.92
55801;BME280;41730;51.960;20.158;2022-11-03T06:56:23;100879.42;;;12.21;66.52
55801;BME280;41730;51.960;20.158;2022-11-03T06:58:54;100880.65;;;12.59;65.08
55801;BME280;41730;51.960;20.158;2022-11-03T07:01:28;100881.83;;;12.46;65.21
55801;BME280;41730;51.960;20.158;2022-11-03T07:03:59;100883.45;;;12.47;65.25
55801;BME280;41730;51.960;20.158;2022-11-03T07:06:35;100882.11;;;12.60;64.99
55801;BME280;41730;51.960;20.158;2022-11-03T07:09:05;100882.33;;;12.46;65.47
55801;BME280;41730;51.960;20.158;2022-11-03T07:11:42;100882.61;;;12.54;65.10
55801;BME280;41730;51.960;20.158;2022-11-03T07:14:13;100882.77;;;12.43;65.26
55801;BME280;41730;51.960;20.158;2022-11-03T07:16:45;100883.15;;;12.21;65.56
55801;BME280;41730;51.960;20.158;2022-11-03T07:19:18;100886.32;;;12.18;65.63
55801;BME280;41730;51.960;20.158;2022-11-03T07:21:50;100888.67;;;12.22;65.44
55801;BME280;41730;51.960;20.158;2022-11-03T07:24:23;100884.60;;;12.29;65.07
55801;BME280;41730;51.960;20.158;2022-11-03T07:26:55;100881.48;;;12.22;65.46
55801;BME280;41730;51.960;20.158;2022-11-03T07:29:27;100879.04;;;12.50;65.03
55801;BME280;41730;51.960;20.158;2022-11-03T07:31:59;100879.19;;;12.73;64.41
55801;BME280;41730;51.960;20.158;2022-11-03T07:34:30;100874.38;;;12.73;64.12
55801;BME280;41730;51.960;20.158;2022-11-03T07:37:00;100869.80;;;12.69;64.62
55801;BME280;41730;51.960;20.158;2022-11-03T07:39:33;100869.52;;;13.07;64.70
55801;BME280;41730;51.960;20.158;2022-11-03T07:42:11;100865.65;;;13.53;63.86
55801;BME280;41730;51.960;20.158;2022-11-03T07:44:41;100863.26;;;14.06;63.25
55801;BME280;41730;51.960;20.158;2022-11-03T07:47:12;100864.63;;;14.53;62.36
55801;BME280;41730;51.960;20.158;2022-11-03T07:49:42;100863.16;;;14.95;61.53
55801;BME280;41730;51.960;20.158;2022-11-03T07:52:12;100859.94;;;15.30;60.75
55801;BME280;41730;51.960;20.158;2022-11-03T07:54:42;100859.35;;;15.44;60.45
55801;BME280;41730;51.960;20.158;2022-11-03T07:57:18;100860.23;;;15.69;59.97
55801;BME280;41730;51.960;20.158;2022-11-03T07:59:49;100860.71;;;15.92;59.58
55801;BME280;41730;51.960;20.158;2022-11-03T08:02:28;100861.61;;;16.07;59.36
55801;BME280;41730;51.960;20.158;2022-11-03T08:04:58;100864.83;;;16.10;59.29
55801;BME280;41730;51.960;20.158;2022-11-03T08:07:27;100860.95;;;16.18;59.38
55801;BME280;41730;51.960;20.158;2022-11-03T08:09:57;100857.18;;;16.18;59.41
55801;BME280;41730;51.960;20.158;2022-11-03T08:12:26;100858.16;;;16.17;59.22
55801;BME280;41730;51.960;20.158;2022-11-03T08:14:55;100852.70;;;16.35;58.65
55801;BME280;41730;51.960;20.158;2022-11-03T08:17:24;100853.17;;;16.39;58.55
55801;BME280;41730;51.960;20.158;2022-11-03T08:19:53;100850.50;;;16.29;58.55
55801;BME280;41730;51.960;20.158;2022-11-03T08:22:21;100851.71;;;16.22;58.99
55801;BME280;41730;51.960;20.158;2022-11-03T08:24:52;100848.54;;;16.20;58.88
55801;BME280;41730;51.960;20.158;2022-11-03T08:27:21;100849.80;;;16.28;58.66
55801;BME280;41730;51.960;20.158;2022-11-03T08:29:50;100853.40;;;16.39;58.41
55801;BME280;41730;51.960;20.158;2022-11-03T08:32:19;100855.75;;;16.48;57.93
55801;BME280;41730;51.960;20.158;2022-11-03T08:34:48;100856.40;;;16.46;57.74
55801;BME280;41730;51.960;20.158;2022-11-03T08:37:16;100858.17;;;16.45;57.91
55801;BME280;41730;51.960;20.158;2022-11-03T08:39:45;100850.44;;;16.53;57.63
55801;BME280;41730;51.960;20.158;2022-11-03T08:42:14;100847.67;;;16.59;57.25
55801;BME280;41730;51.960;20.158;2022-11-03T08:44:43;100845.33;;;16.55;57.20
55801;BME280;41730;51.960;20.158;2022-11-03T08:47:12;100840.48;;;16.53;57.31
55801;BME280;41730;51.960;20.158;2022-11-03T08:49:40;100841.72;;;16.55;57.40
55801;BME280;41730;51.960;20.158;2022-11-03T08:52:09;100841.86;;;16.59;57.07
55801;BME280;41730;51.960;20.158;2022-11-03T08:54:38;100840.17;;;16.73;56.79
55801;BME280;41730;51.960;20.158;2022-11-03T08:57:07;100841.70;;;16.79;56.72
55801;BME280;41730;51.960;20.158;2022-11-03T08:59:36;100839.44;;;16.84;56.40
55801;BME280;41730;51.960;20.158;2022-11-03T09:02:06;100837.07;;;16.82;56.42
55801;BME280;41730;51.960;20.158;2022-11-03T09:04:35;100837.10;;;16.82;56.30
55801;BME280;41730;51.960;20.158;2022-11-03T09:07:04;100837.65;;;16.88;56.34
55801;BME280;41730;51.960;20.158;2022-11-03T09:09:33;100834.31;;;16.93;56.33
55801;BME280;41730;51.960;20.158;2022-11-03T09:12:22;100833.80;;;17.00;55.96
55801;BME280;41730;51.960;20.158;2022-11-03T09:14:51;100828.54;;;16.90;55.97
55801;BME280;41730;51.960;20.158;2022-11-03T09:17:20;100827.46;;;16.70;56.08
55801;BME280;41730;51.960;20.158;2022-11-03T09:19:48;100827.79;;;16.76;56.11
55801;BME280;41730;51.960;20.158;2022-11-03T09:22:17;100826.12;;;16.83;55.82
55801;BME280;41730;51.960;20.158;2022-11-03T09:24:46;100824.68;;;16.90;55.63
55801;BME280;41730;51.960;20.158;2022-11-03T09:27:15;100822.32;;;16.93;55.59
55801;BME280;41730;51.960;20.158;2022-11-03T09:29:44;100822.25;;;16.89;55.78
55801;BME280;41730;51.960;20.158;2022-11-03T09:32:33;100826.30;;;16.85;55.95
55801;BME280;41730;51.960;20.158;2022-11-03T09:35:02;100819.83;;;16.96;55.41
55801;BME280;41730;51.960;20.158;2022-11-03T09:37:31;100816.13;;;17.07;55.10
55801;BME280;41730;51.960;20.158;2022-11-03T09:40:00;100813.89;;;17.04;54.76
55801;BME280;41730;51.960;20.158;2022-11-03T09:42:30;100811.38;;;16.99;54.91
55801;BME280;41730;51.960;20.158;2022-11-03T09:45:01;100810.80;;;16.85;55.04
55801;BME280;41730;51.960;20.158;2022-11-03T09:47:34;100811.42;;;16.79;54.86
55801;BME280;41730;51.960;20.158;2022-11-03T09:50:05;100806.29;;;16.64;55.10
55801;BME280;41730;51.960;20.158;2022-11-03T09:52:36;100800.58;;;16.70;54.78
55801;BME280;41730;51.960;20.158;2022-11-03T09:55:13;100796.61;;;16.73;54.38
55801;BME280;41730;51.960;20.158;2022-11-03T09:57:43;100795.59;;;16.74;54.60
55801;BME280;41730;51.960;20.158;2022-11-03T10:00:21;100793.13;;;16.69;54.49
55801;BME280;41730;51.960;20.158;2022-11-03T10:02:53;100789.97;;;16.58;54.47
55801;BME280;41730;51.960;20.158;2022-11-03T10:05:24;100782.45;;;16.51;54.37
55801;BME280;41730;51.960;20.158;2022-11-03T10:07:56;100776.38;;;16.55;54.10
55801;BME280;41730;51.960;20.158;2022-11-03T10:10:27;100777.42;;;16.43;53.92
55801;BME280;41730;51.960;20.158;2022-11-03T10:12:57;100772.42;;;16.29;54.24
55801;BME280;41730;51.960;20.158;2022-11-03T10:15:27;100771.73;;;16.34;53.97
55801;BME280;41730;51.960;20.158;2022-11-03T10:17:56;100769.23;;;16.27;53.85
55801;BME280;41730;51.960;20.158;2022-11-03T10:20:27;100767.17;;;16.23;53.56
55801;BME280;41730;51.960;20.158;2022-11-03T10:22:56;100765.08;;;16.10;53.83
55801;BME280;41730;51.960;20.158;2022-11-03T10:25:35;100766.27;;;15.98;54.02
55801;BME280;41730;51.960;20.158;2022-11-03T10:28:16;100764.01;;;15.92;54.09
55801;BME280;41730;51.960;20.158;2022-11-03T10:30:50;100761.30;;;15.90;54.04
55801;BME280;41730;51.960;20.158;2022-11-03T10:33:40;100761.68;;;15.94;53.94
55801;BME280;41730;51.960;20.158;2022-11-03T10:36:23;100757.67;;;15.95;54.30
55801;BME280;41730;51.960;20.158;2022-11-03T10:38:53;100754.84;;;15.93;54.29
55801;BME280;41730;51.960;20.158;2022-11-03T10:41:23;100750.66;;;15.96;54.29
55801;BME280;41730;51.960;20.158;2022-11-03T10:44:04;100748.91;;;15.85;54.32
55801;BME280;41730;51.960;20.158;2022-11-03T10:46:35;100743.68;;;15.81;54.43
55801;BME280;41730;51.960;20.158;2022-11-03T10:49:19;100744.11;;;15.74;54.17
55801;BME280;41730;51.960;20.158;2022-11-03T10:51:50;100738.89;;;15.61;54.33
55801;BME280;41730;51.960;20.158;2022-11-03T10:54:21;100736.64;;;15.60;54.36
55801;BME280;41730;51.960;20.158;2022-11-03T10:56:51;100735.80;;;15.54;54.42
55801;BME280;41730;51.960;20.158;2022-11-03T10:59:21;100731.62;;;15.48;54.32
55801;BME280;41730;51.960;20.158;2022-11-03T11:01:51;100729.66;;;15.61;54.31
55801;BME280;41730;51.960;20.158;2022-11-03T11:04:21;100725.38;;;15.65;54.25
55801;BME280;41730;51.960;20.158;2022-11-03T11:06:50;100721.52;;;15.87;53.98
55801;BME280;41730;51.960;20.158;2022-11-03T11:09:22;100718.44;;;15.94;53.80
55801;BME280;41730;51.960;20.158;2022-11-03T11:12:13;100714.65;;;15.94;53.68
55801;BME280;41730;51.960;20.158;2022-11-03T11:14:53;100713.52;;;16.02;53.57
55801;BME280;41730;51.960;20.158;2022-11-03T11:17:55;100706.92;;;16.03;53.58
55801;BME280;41730;51.960;20.158;2022-11-03T11:20:32;100701.40;;;16.17;53.36
55801;BME280;41730;51.960;20.158;2022-11-03T11:26:39;100684.29;;;16.10;53.66
55801;BME280;41730;51.960;20.158;2022-11-03T11:29:34;100676.17;;;16.22;53.40
55801;BME280;41730;51.960;20.158;2022-11-03T11:36:00;100669.61;;;16.34;53.19
55801;BME280;41730;51.960;20.158;2022-11-03T11:41:12;100671.46;;;16.01;53.13
55801;BME280;41730;51.960;20.158;2022-11-03T11:43:41;100671.40;;;15.98;53.16
55801;BME280;41730;51.960;20.158;2022-11-03T11:46:36;100667.58;;;16.09;52.72
55801;BME280;41730;51.960;20.158;2022-11-03T11:49:17;100661.73;;;16.14;52.34
55801;BME280;41730;51.960;20.158;2022-11-03T11:51:46;100657.79;;;16.15;51.70
55801;BME280;41730;51.960;20.158;2022-11-03T11:54:17;100652.15;;;16.14;51.71
55801;BME280;41730;51.960;20.158;2022-11-03T11:56:49;100650.21;;;16.06;51.87
55801;BME280;41730;51.960;20.158;2022-11-03T11:59:21;100645.96;;;16.00;51.99
55801;BME280;41730;51.960;20.158;2022-11-03T12:01:55;100642.06;;;15.93;52.26
55801;BME280;41730;51.960;20.158;2022-11-03T12:04:26;100641.61;;;15.90;52.30
55801;BME280;41730;51.960;20.158;2022-11-03T12:06:58;100639.38;;;16.04;51.54
55801;BME280;41730;51.960;20.158;2022-11-03T12:09:27;100638.16;;;16.08;51.44
55801;BME280;41730;51.960;20.158;2022-11-03T12:11:57;100633.64;;;15.94;51.64
55801;BME280;41730;51.960;20.158;2022-11-03T12:14:36;100631.81;;;15.87;51.57
55801;BME280;41730;51.960;20.158;2022-11-03T12:17:32;100628.83;;;15.94;51.64
55801;BME280;41730;51.960;20.158;2022-11-03T12:20:34;100624.73;;;15.91;51.58
55801;BME280;41730;51.960;20.158;2022-11-03T12:23:03;100623.77;;;15.87;51.36
55801;BME280;41730;51.960;20.158;2022-11-03T12:25:36;100624.73;;;15.87;51.26
55801;BME280;41730;51.960;20.158;2022-11-03T12:28:07;100618.58;;;15.94;51.32
55801;BME280;41730;51.960;20.158;2022-11-03T12:30:37;100615.48;;;15.99;51.22
55801;BME280;41730;51.960;20.158;2022-11-03T12:33:07;100616.65;;;15.85;51.52
55801;BME280;41730;51.960;20.158;2022-11-03T12:35:37;100617.89;;;15.80;51.50
55801;BME280;41730;51.960;20.158;2022-11-03T12:38:06;100613.46;;;15.85;51.41
55801;BME280;41730;51.960;20.158;2022-11-03T12:40:35;100609.66;;;15.86;51.16
55801;BME280;41730;51.960;20.158;2022-11-03T12:43:09;100607.11;;;15.80;51.15
55801;BME280;41730;51.960;20.158;2022-11-03T12:45:43;100604.62;;;15.76;51.18
55801;BME280;41730;51.960;20.158;2022-11-03T12:48:13;100603.61;;;15.85;51.05
55801;BME280;41730;51.960;20.158;2022-11-03T12:50:42;100603.84;;;15.91;51.00
55801;BME280;41730;51.960;20.158;2022-11-03T12:53:11;100600.30;;;15.92;50.99
55801;BME280;41730;51.960;20.158;2022-11-03T12:55:40;100602.40;;;15.97;50.86
55801;BME280;41730;51.960;20.158;2022-11-03T12:58:12;100600.27;;;15.93;50.90
55801;BME280;41730;51.960;20.158;2022-11-03T13:00:41;100590.86;;;15.80;51.16
55801;BME280;41730;51.960;20.158;2022-11-03T13:03:17;100587.02;;;15.70;51.28
55801;BME280;41730;51.960;20.158;2022-11-03T13:05:45;100590.47;;;15.64;51.66
55801;BME280;41730;51.960;20.158;2022-11-03T13:08:15;100589.71;;;15.57;51.73
55801;BME280;41730;51.960;20.158;2022-11-03T13:10:45;100591.23;;;15.50;51.81
55801;BME280;41730;51.960;20.158;2022-11-03T13:13:14;100593.67;;;15.45;51.94
55801;BME280;41730;51.960;20.158;2022-11-03T13:15:43;100586.92;;;15.66;51.81
55801;BME280;41730;51.960;20.158;2022-11-03T13:18:12;100583.09;;;15.67;51.65
55801;BME280;41730;51.960;20.158;2022-11-03T13:20:42;100581.85;;;15.65;51.53
55801;BME280;41730;51.960;20.158;2022-11-03T13:23:12;100582.63;;;15.55;51.73